Time;durP1;ratioP1;P1;durP2;ratioP2;P2;SDS_P1;SDS_P2;PMS_P1;PMS_P2;Temp;Humidity;BMP_temperature;BMP_pressure;BME280_temperature;BME280_humidity;BME280_pressure;Samples;Min_cycle;Max_cycle;Signal;HPM_P1;HPM_P2
2023/04/01 00:01:24;;;;;;;1999.90;999.90;;;;;;;8.54;100.00;94035.00;5083597;28;20201;-61
2023/04/01 00:03:49;;;;;;;1999.90;999.90;;;;;;;8.60;100.00;94027.84;5084070;28;20166;-62
2023/04/01 00:06:17;;;;;;;1999.90;999.90;;;;;;;8.50;100.00;94023.44;5084391;28;20169;-61
2023/04/01 00:08:42;;;;;;;1999.90;999.90;;;;;;;8.50;100.00;94028.88;5083686;28;20188;-62
2023/04/01 00:11:08;;;;;;;1999.90;999.90;;;;;;;8.44;100.00;94022.41;5084554;28;20232;-61
2023/04/01 00:13:34;;;;;;;1999.90;999.90;;;;;;;8.44;100.00;94019.69;5084039;28;20174;-61
2023/04/01 00:16:01;;;;;;;1999.90;999.90;;;;;;;8.40;100.00;94024.44;5084265;28;20192;-61
2023/04/01 00:18:26;;;;;;;1999.90;999.90;;;;;;;8.44;100.00;94000.66;5083599;28;20223;-62
2023/04/01 00:20:52;;;;;;;1999.90;999.90;;;;;;;8.40;100.00;94002.69;5084217;28;20180;-65
2023/04/01 00:23:19;;;;;;;1999.90;999.90;;;;;;;8.44;100.00;93997.91;5083626;28;20240;-61
2023/04/01 00:25:47;;;;;;;1999.90;999.90;;;;;;;8.39;100.00;94000.38;5084273;28;20192;-61
2023/04/01 00:28:15;;;;;;;1999.90;999.90;;;;;;;8.43;100.00;93996.41;5083643;28;20196;-61
2023/04/01 00:30:41;;;;;;;1999.90;999.90;;;;;;;8.41;100.00;93996.03;5083289;28;20213;-61
2023/04/01 00:33:06;;;;;;;1999.90;999.90;;;;;;;8.37;100.00;93989.16;5083771;28;20174;-61
2023/04/01 00:35:32;;;;;;;1999.90;999.90;;;;;;;8.35;100.00;93989.59;5083699;28;20170;-62
2023/04/01 00:37:58;;;;;;;1999.90;999.90;;;;;;;8.24;100.00;93983.63;5083540;28;20193;-61
2023/04/01 00:40:36;;;;;;;1999.90;999.90;;;;;;;8.22;100.00;93985.22;5083626;28;20196;-61
2023/04/01 00:43:02;;;;;;;1999.90;999.90;;;;;;;8.22;100.00;93991.44;5083982;28;20161;-60
2023/04/01 00:45:37;;;;;;;1999.90;999.90;;;;;;;8.16;100.00;93984.91;5084012;28;20173;-61
2023/04/01 00:48:15;;;;;;;1999.90;999.90;;;;;;;8.18;100.00;93985.28;5083989;28;20232;-61
2023/04/01 00:50:43;;;;;;;1999.90;999.90;;;;;;;8.14;100.00;93981.88;5083902;28;20169;-62
2023/04/01 00:53:10;;;;;;;1999.90;999.90;;;;;;;8.14;100.00;93979.16;5083393;28;20176;-61
2023/04/01 00:55:39;;;;;;;1999.90;999.90;;;;;;;8.15;100.00;93985.34;5083904;28;20216;-61
2023/04/01 00:58:09;;;;;;;1999.90;999.90;;;;;;;8.16;100.00;93982.19;5083198;28;20212;-61
2023/04/01 01:00:35;;;;;;;1999.90;999.90;;;;;;;8.17;100.00;93967.44;5083351;28;20181;-61
2023/04/01 01:03:02;;;;;;;1999.90;999.90;;;;;;;8.20;100.00;93971.25;5083816;28;20178;-61
2023/04/01 01:05:46;;;;;;;1999.90;999.90;;;;;;;8.24;100.00;93970.03;5083884;28;20176;-60
2023/04/01 01:08:23;;;;;;;1999.90;999.90;;;;;;;8.25;100.00;93968.84;5083781;28;20174;-62
2023/04/01 01:10:50;;;;;;;1999.90;999.90;;;;;;;8.24;100.00;93967.31;5082999;28;20207;-61
2023/04/01 01:13:51;;;;;;;1999.90;999.90;;;;;;;8.28;100.00;93973.44;5083080;28;20249;-61
2023/04/01 01:16:26;;;;;;;1999.90;999.90;;;;;;;8.33;100.00;93970.19;5026281;28;20175;-61
2023/04/01 01:19:07;;;;;;;1999.90;999.90;;;;;;;8.41;100.00;93981.69;5075246;28;20241;-63
2023/04/01 01:22:17;;;;;;;1999.90;999.90;;;;;;;8.44;100.00;93980.81;5086819;28;20458;-62
2023/04/01 01:24:56;;;;;;;1999.90;999.90;;;;;;;8.49;100.00;93994.69;5087085;28;20165;-62
2023/04/01 01:27:23;;;;;;;1999.90;999.90;;;;;;;8.54;100.00;93988.75;5087328;28;20177;-61
2023/04/01 01:30:07;;;;;;;1999.90;999.90;;;;;;;8.54;100.00;93994.19;5086705;28;20217;-61
2023/04/01 01:32:54;;;;;;;1999.90;999.90;;;;;;;8.56;100.00;93994.53;5087363;28;20169;-63
2023/04/01 01:35:32;;;;;;;1999.90;999.90;;;;;;;8.53;100.00;93994.63;5087111;28;20180;-62
2023/04/01 01:38:02;;;;;;;1999.90;999.90;;;;;;;8.57;100.00;94001.53;5087228;28;20193;-61
2023/04/01 01:40:30;;;;;;;1999.90;999.90;;;;;;;8.60;100.00;94005.34;5087037;28;20206;-61
2023/04/01 01:43:02;;;;;;;1999.90;999.90;;;;;;;8.54;100.00;93994.19;5086654;28;20191;-61
2023/04/01 01:45:30;;;;;;;1999.90;999.90;;;;;;;8.56;100.00;93988.34;5086894;28;20171;-61
2023/04/01 01:47:57;;;;;;;1999.90;999.90;;;;;;;8.50;100.00;93996.25;5086271;28;20184;-62
2023/04/01 01:50:25;;;;;;;1999.90;999.90;;;;;;;8.47;100.00;93986.19;5086776;28;20184;-62
2023/04/01 01:52:50;;;;;;;1999.90;999.90;;;;;;;8.49;100.00;93975.66;5086654;28;20170;-62
2023/04/01 01:55:36;;;;;;;1999.90;999.90;;;;;;;8.45;100.00;93977.69;5086732;28;20269;-62
2023/04/01 01:58:12;;;;;;;1999.90;999.90;;;;;;;8.43;100.00;93982.81;5086714;28;20270;-62
2023/04/01 02:00:40;;;;;;;1999.90;999.90;;;;;;;8.46;100.00;93973.78;5086856;28;20202;-62
2023/04/01 02:03:06;;;;;;;1999.90;999.90;;;;;;;8.45;100.00;93977.69;5086060;28;20173;-61
2023/04/01 02:05:31;;;;;;;1999.90;999.90;;;;;;;8.46;100.00;93973.03;5086028;28;20166;-61
2023/04/01 02:08:06;;;;;;;1999.90;999.90;;;;;;;8.47;100.00;93983.47;5086522;28;20222;-61
2023/04/01 02:10:35;;;;;;;1999.90;999.90;;;;;;;8.45;100.00;93991.28;5086441;28;20183;-61
2023/04/01 02:13:07;;;;;;;1999.90;999.90;;;;;;;8.49;100.00;93993.94;5085755;28;20208;-61
2023/04/01 02:15:37;;;;;;;1999.90;999.90;;;;;;;8.55;100.00;93997.66;5086343;28;20168;-61
2023/04/01 02:18:04;;;;;;;1999.90;999.90;;;;;;;8.50;100.00;94001.69;5086138;28;20416;-61
2023/04/01 02:20:30;;;;;;;1999.90;999.90;;;;;;;8.50;100.00;93996.25;5085719;28;20161;-61
2023/04/01 02:22:59;;;;;;;1999.90;999.90;;;;;;;8.49;100.00;94008.28;5085934;28;20168;-61
2023/04/01 02:25:33;;;;;;;1999.90;999.90;;;;;;;8.51;100.00;94002.44;5086005;28;20165;-61
2023/04/01 02:28:00;;;;;;;1999.90;999.90;;;;;;;8.43;100.00;93996.41;5086344;28;20165;-61
2023/04/01 02:30:27;;;;;;;1999.90;999.90;;;;;;;8.45;100.00;93999.44;5085516;28;20538;-60
2023/04/01 02:32:53;;;;;;;1999.90;999.90;;;;;;;8.45;100.00;94010.31;5084902;28;20162;-60
2023/04/01 02:35:19;;;;;;;1999.90;999.90;;;;;;;8.44;100.00;94008.81;5085875;28;20161;-60
2023/04/01 02:37:48;;;;;;;1999.90;999.90;;;;;;;8.46;100.00;94002.94;5085248;28;20185;-61
2023/04/01 02:40:14;;;;;;;1999.90;999.90;;;;;;;8.48;100.00;94014.94;5085398;28;20161;-60
2023/04/01 02:42:40;;;;;;;1999.90;999.90;;;;;;;8.47;100.00;94013.41;5085313;28;20157;-61
2023/04/01 02:45:07;;;;;;;1999.90;999.90;;;;;;;8.46;100.00;94011.88;5085599;28;20172;-60
2023/04/01 02:47:32;;;;;;;1999.90;999.90;;;;;;;8.48;100.00;94001.31;5085183;28;20232;-61
2023/04/01 02:49:58;;;;;;;1999.90;999.90;;;;;;;8.52;100.00;94010.16;5085079;28;20169;-61
2023/04/01 02:52:30;;;;;;;1999.90;999.90;;;;;;;8.48;100.00;94012.22;5085015;28;20241;-61
2023/04/01 02:54:57;;;;;;;1999.90;999.90;;;;;;;8.49;100.00;94019.16;5085056;28;20181;-61
2023/04/01 02:57:23;;;;;;;1999.90;999.90;;;;;;;8.48;100.00;94025.03;5084925;28;20173;-62
2023/04/01 02:59:49;;;;;;;1999.90;999.90;;;;;;;8.44;100.00;94030.56;5085403;28;20165;-62
2023/04/01 03:02:15;;;;;;;1999.90;999.90;;;;;;;8.45;100.00;94026.66;5084894;28;20172;-62
2023/04/01 03:04:40;;;;;;;1999.90;999.90;;;;;;;8.42;100.00;94024.75;5084818;28;20172;-61
2023/04/01 03:07:06;;;;;;;1999.90;999.90;;;;;;;8.44;100.00;94029.78;5085335;28;20189;-61
2023/04/01 03:09:32;;;;;;;1999.90;999.90;;;;;;;8.40;100.00;94029.09;5084805;28;20195;-61
2023/04/01 03:11:57;;;;;;;1999.90;999.90;;;;;;;8.38;100.00;94031.50;5085161;28;20176;-62
2023/04/01 03:14:22;;;;;;;1999.90;999.90;;;;;;;8.31;100.00;94024.25;5084677;28;20172;-62
2023/04/01 03:16:48;;;;;;;1999.90;999.90;;;;;;;8.31;100.00;94029.69;5085285;28;20169;-62
2023/04/01 03:19:13;;;;;;;1999.90;999.90;;;;;;;8.29;100.00;94040.22;5084539;28;20227;-61
2023/04/01 03:21:39;;;;;;;1999.90;999.90;;;;;;;8.27;100.00;94029.00;5085026;28;20183;-62
2023/04/01 03:24:05;;;;;;;1999.90;999.90;;;;;;;8.32;100.00;94016.84;5085022;28;20169;-62
2023/04/01 03:26:30;;;;;;;1999.90;999.90;;;;;;;8.30;100.00;94022.72;5084474;28;20175;-61
2023/04/01 03:28:56;;;;;;;1999.90;999.90;;;;;;;8.26;100.00;94035.63;5084162;28;20193;-62
2023/04/01 03:31:22;;;;;;;1999.90;999.90;;;;;;;8.24;100.00;94024.41;5085153;28;20184;-61
2023/04/01 03:33:47;;;;;;;1999.90;999.90;;;;;;;8.18;100.00;94017.91;5084710;28;20188;-61
2023/04/01 03:36:13;;;;;;;1999.90;999.90;;;;;;;8.14;100.00;94028.09;5084860;28;20173;-61
2023/04/01 03:38:40;;;;;;;1999.90;999.90;;;;;;;8.16;100.00;94033.13;5084826;28;20246;-62
2023/04/01 03:41:06;;;;;;;1999.90;999.90;;;;;;;8.10;100.00;94032.84;5084058;28;20273;-61
2023/04/01 03:43:32;;;;;;;1999.90;999.90;;;;;;;8.09;100.00;94036.72;5083582;28;20173;-61
2023/04/01 03:45:58;;;;;;;1999.90;999.90;;;;;;;8.05;100.00;94033.31;5084163;28;20204;-62
2023/04/01 03:48:25;;;;;;;1999.90;999.90;;;;;;;7.94;100.00;94037.47;5084201;28;20177;-61
2023/04/01 03:50:51;;;;;;;1999.90;999.90;;;;;;;7.98;100.00;94036.19;5083867;28;20177;-62
2023/04/01 03:53:16;;;;;;;1999.90;999.90;;;;;;;8.01;100.00;94046.22;5083988;28;20177;-61
2023/04/01 03:55:42;;;;;;;1999.90;999.90;;;;;;;8.05;100.00;94044.19;5083974;28;20244;-61
2023/04/01 03:58:07;;;;;;;1999.90;999.90;;;;;;;8.02;100.00;94042.34;5084018;28;20208;-60
2023/04/01 04:00:33;;;;;;;1999.90;999.90;;;;;;;8.04;100.00;94034.50;5084089;28;20180;-61
2023/04/01 04:02:59;;;;;;;1999.90;999.90;;;;;;;8.03;100.00;94038.41;5084343;28;20182;-61
2023/04/01 04:05:25;;;;;;;1999.90;999.90;;;;;;;8.07;100.00;94044.56;5083921;28;20180;-61
2023/04/01 04:07:51;;;;;;;1999.90;999.90;;;;;;;8.02;100.00;94036.91;5083850;28;20177;-62
2023/04/01 04:10:17;;;;;;;1999.90;999.90;;;;;;;7.95;100.00;94038.97;5084016;28;20177;-62
2023/04/01 04:12:42;;;;;;;1999.90;999.90;;;;;;;7.91;100.00;94035.56;5083879;28;20205;-62
2023/04/01 04:15:08;;;;;;;1999.90;999.90;;;;;;;7.87;100.00;94034.88;5083697;28;20204;-62
2023/04/01 04:17:34;;;;;;;1999.90;999.90;;;;;;;7.80;100.00;94027.66;5083846;28;20173;-61
2023/04/01 04:19:59;;;;;;;1999.90;999.90;;;;;;;7.81;100.00;94025.69;5084251;28;20180;-62
2023/04/01 04:22:25;;;;;;;1999.90;999.90;;;;;;;7.82;100.00;94027.19;5083713;28;20238;-61
2023/04/01 04:24:50;;;;;;;1999.90;999.90;;;;;;;7.84;100.00;94033.78;5083772;28;20184;-61
2023/04/01 04:27:16;;;;;;;1999.90;999.90;;;;;;;7.92;100.00;94021.56;5083970;28;20208;-61
2023/04/01 04:29:41;;;;;;;1999.90;999.90;;;;;;;7.95;100.00;94020.72;5083479;28;20237;-62
2023/04/01 04:32:06;;;;;;;1999.90;999.90;;;;;;;8.03;100.00;94019.41;5083685;28;20173;-62
2023/04/01 04:34:32;;;;;;;1999.90;999.90;;;;;;;8.03;100.00;94019.41;5083576;28;20173;-61
2023/04/01 04:36:58;;;;;;;1999.90;999.90;;;;;;;8.02;100.00;94020.59;5083610;28;20233;-62
2023/04/01 04:39:23;;;;;;;1999.90;999.90;;;;;;;8.04;100.00;94029.06;5084009;28;20224;-62
2023/04/01 04:41:48;;;;;;;1999.90;999.90;;;;;;;8.04;100.00;94036.44;5083797;28;20173;-62
2023/04/01 04:44:14;;;;;;;1999.90;999.90;;;;;;;7.99;100.00;94032.28;5083459;28;20170;-61
2023/04/01 04:46:39;;;;;;;1999.90;999.90;;;;;;;8.02;100.00;94042.34;5084052;28;20169;-61
2023/04/01 04:49:05;;;;;;;1999.90;999.90;;;;;;;8.07;100.00;94050.00;5083436;28;20202;-61
2023/04/01 04:51:33;;;;;;;1999.90;999.90;;;;;;;8.07;100.00;94049.22;5083514;28;20173;-61
2023/04/01 04:53:59;;;;;;;1999.90;999.90;;;;;;;8.04;100.00;94039.94;5083913;28;20192;-61
2023/04/01 04:56:25;;;;;;;1999.90;999.90;;;;;;;8.08;100.00;94046.06;5086652;28;20173;-61
2023/04/01 04:58:52;;;;;;;1999.90;999.90;;;;;;;8.12;100.00;94049.47;5087124;28;20193;-61
2023/04/01 05:01:18;;;;;;;1999.90;999.90;;;;;;;8.14;100.00;94055.28;5087317;28;20180;-61
2023/04/01 05:03:44;;;;;;;1999.90;999.90;;;;;;;8.21;100.00;94048.91;5087664;28;20169;-61
2023/04/01 05:06:11;;;;;;;1999.90;999.90;;;;;;;8.25;100.00;94047.69;5087107;28;20191;-61
2023/04/01 05:08:38;;;;;;;1999.90;999.90;;;;;;;8.24;100.00;94054.31;5086958;28;20169;-61
2023/04/01 05:11:09;;;;;;;1999.90;999.90;;;;;;;8.30;100.00;94052.63;5087099;28;20172;-61
2023/04/01 05:13:35;;;;;;;1999.90;999.90;;;;;;;8.31;100.00;94056.88;5087585;28;20172;-61
2023/04/01 05:16:00;;;;;;;1999.90;999.90;;;;;;;8.40;100.00;94056.31;5086947;28;20201;-61
2023/04/01 05:18:25;;;;;;;1999.90;999.90;;;;;;;8.42;100.00;94062.09;5087043;28;20233;-61
2023/04/01 05:20:53;;;;;;;1999.90;999.90;;;;;;;8.50;100.00;94066.19;5086875;28;20176;-61
2023/04/01 05:23:20;;;;;;;1999.90;999.90;;;;;;;8.50;100.00;94066.97;5087281;28;20230;-61
2023/04/01 05:25:47;;;;;;;1999.90;999.90;;;;;;;8.58;100.00;94067.56;5086650;28;20180;-63
2023/04/01 05:28:12;;;;;;;1999.90;999.90;;;;;;;8.63;100.00;94069.81;5086460;28;20176;-62
2023/04/01 05:30:42;;;;;;;1999.90;999.90;;;;;;;8.68;100.00;94083.66;5086981;28;20217;-62
2023/04/01 05:33:08;;;;;;;1999.90;999.90;;;;;;;8.77;100.00;94083.06;5086649;28;20175;-62
2023/04/01 05:35:34;;;;;;;1999.90;999.90;;;;;;;8.87;100.00;94085.56;5087062;28;20223;-62
2023/04/01 05:37:59;;;;;;;1999.90;999.90;;;;;;;8.95;100.00;94089.66;5086463;28;20198;-61
2023/04/01 05:40:25;;;;;;;1999.90;999.90;;;;;;;8.90;100.00;94084.72;5086839;28;20169;-61
2023/04/01 05:42:50;;;;;;;1999.90;999.90;;;;;;;9.05;100.00;94102.25;5086447;28;20237;-60
2023/04/01 05:45:16;;;;;;;1999.90;999.90;;;;;;;9.56;100.00;94108.78;5086512;28;20241;-60
2023/04/01 05:47:42;;;;;;;1999.90;999.90;;;;;;;10.16;100.00;94096.31;5086325;28;20164;-61
2023/04/01 05:50:08;;;;;;;1999.90;999.90;;;;;;;10.64;100.00;94112.47;5087144;28;20238;-61
2023/04/01 05:52:34;;;;;;;1999.90;999.90;;;;;;;10.79;100.00;94132.69;5086258;28;20170;-60
2023/04/01 05:55:00;;;;;;;1999.90;999.90;;;;;;;11.24;100.00;94127.78;5086187;28;20226;-61
2023/04/01 05:57:25;;;;;;;1999.90;999.90;;;;;;;11.49;100.00;94125.03;5086750;28;20187;-60
2023/04/01 05:59:51;;;;;;;1999.90;999.90;;;;;;;11.82;100.00;94123.59;5086102;28;20208;-61
2023/04/01 06:02:17;;;;;;;1999.90;999.90;;;;;;;11.75;100.00;94129.28;5086143;28;20208;-60
2023/04/01 06:04:43;;;;;;;1999.90;999.90;;;;;;;12.07;100.00;94137.19;5086124;28;20271;-60
2023/04/01 06:07:13;;;;;;;1999.90;999.90;;;;;;;12.34;100.00;94142.88;5086097;28;20203;-60
2023/04/01 06:09:39;;;;;;;1999.90;999.90;;;;;;;12.45;100.00;94140.53;5086038;28;20199;-64
2023/04/01 06:12:29;;;;;;;1999.90;999.90;;;;;;;12.53;100.00;94136.34;5085863;28;20173;-62
2023/04/01 06:15:00;;;;;;;1999.90;999.90;;;;;;;12.29;100.00;94136.03;5086434;28;20173;-62
2023/04/01 06:17:57;;;;;;;1999.90;999.90;;;;;;;12.04;100.00;94138.06;5085865;28;20180;-64
2023/04/01 06:20:46;;;;;;;1999.90;999.90;;;;;;;11.91;100.00;94145.56;5086600;28;20169;-62
2023/04/01 06:23:44;;;;;;;1999.90;999.90;;;;;;;12.25;100.00;94146.34;5084794;28;20185;-66
2023/04/01 06:26:19;;;;;;;1999.90;999.90;;;;;;;12.62;100.00;94144.63;5086093;28;20199;-61
2023/04/01 06:28:56;;;;;;;1999.90;999.90;;;;;;;12.84;100.00;94126.19;5086014;28;20290;-62
2023/04/01 06:31:38;;;;;;;1999.90;999.90;;;;;;;12.87;100.00;94144.47;5085847;28;20188;-61
2023/04/01 06:34:32;;;;;;;1999.90;999.90;;;;;;;13.49;100.00;94151.50;5086110;28;20173;-61
2023/04/01 06:37:25;;;;;;;1999.90;999.90;;;;;;;13.51;100.00;94149.03;5085936;28;20173;-63
2023/04/01 06:40:16;;;;;;;1999.90;999.90;;;;;;;13.07;100.00;94147.63;5085688;28;20201;-62
2023/04/01 06:42:47;;;;;;;1999.90;999.90;;;;;;;13.28;100.00;94160.53;5085581;28;20169;-61
2023/04/01 06:45:23;;;;;;;1999.90;999.90;;;;;;;13.54;100.00;94159.13;5085702;28;20173;-60
2023/04/01 06:47:55;;;;;;;1999.90;999.90;;;;;;;13.20;100.00;94151.06;5085535;28;20165;-61
2023/04/01 06:50:34;;;;;;;1999.90;999.90;;;;;;;12.39;100.00;94154.03;5085684;28;20211;-61
2023/04/01 06:53:11;;;;;;;1999.90;999.90;;;;;;;12.45;100.00;94154.22;5085449;28;20169;-60
2023/04/01 06:55:57;;;;;;;1999.90;999.90;;;;;;;12.77;100.00;94140.13;5085009;28;20230;-60
2023/04/01 06:58:26;;;;;;;1999.90;999.90;;;;;;;12.85;100.00;94149.63;5085619;28;20235;-61
2023/04/01 07:00:56;;;;;;;1999.90;999.90;;;;;;;13.16;100.00;94155.94;5085097;28;20169;-59
2023/04/01 07:03:30;;;;;;;1999.90;999.90;;;;;;;14.01;100.00;94156.81;5084862;28;20218;-59
2023/04/01 07:06:04;;;;;;;1999.90;999.90;;;;;;;14.03;100.00;94151.63;5084565;28;20274;-59
2023/04/01 07:08:34;;;;;;;1999.90;999.90;;;;;;;14.80;100.00;94164.03;5085291;28;20199;-58
2023/04/01 07:11:09;;;;;;;1999.90;999.90;;;;;;;14.18;100.00;94160.81;5084545;28;20173;-60
2023/04/01 07:13:54;;;;;;;1999.90;999.90;;;;;;;13.23;100.00;94158.41;5085291;28;20188;-67
2023/04/01 07:16:29;;;;;;;1999.90;999.90;;;;;;;12.80;100.00;94172.13;5085277;28;20211;-60
2023/04/01 07:19:03;;;;;;;1999.90;999.90;;;;;;;12.72;100.00;94162.66;5084374;28;20212;-61
2023/04/01 07:21:56;;;;;;;1999.90;999.90;;;;;;;12.33;100.00;94166.00;5085078;28;20173;-60
2023/04/01 07:24:26;;;;;;;1999.90;999.90;;;;;;;11.94;100.00;94161.06;5082538;28;20186;-60
2023/04/01 07:26:56;;;;;;;1999.90;999.90;;;;;;;12.43;100.00;94160.13;5084977;28;20243;-60
2023/04/01 07:29:23;;;;;;;1999.90;999.90;;;;;;;12.46;100.00;94147.56;5084179;28;20231;-65
2023/04/01 07:31:51;;;;;;;1999.90;999.90;;;;;;;13.29;100.00;94153.84;5084142;28;20470;-61
2023/04/01 07:34:25;;;;;;;1999.90;999.90;;;;;;;14.30;100.00;94150.91;5084921;28;20185;-65
2023/04/01 07:37:05;;;;;;;1999.90;999.90;;;;;;;14.43;100.00;94151.53;5084267;28;20240;-61
2023/04/01 07:39:47;;;;;;;1999.90;999.90;;;;;;;15.63;100.00;94148.38;5084606;28;20208;-61
2023/04/01 07:42:54;;;;;;;1999.90;999.90;;;;;;;16.09;100.00;94157.94;5084679;28;20169;-61
2023/04/01 07:45:31;;;;;;;1999.90;999.90;;;;;;;15.69;100.00;94135.50;5063823;28;20189;-62
2023/04/01 07:47:59;;;;;;;1999.90;999.90;;;;;;;15.27;100.00;94158.75;5084646;28;20236;-61
2023/04/01 07:50:32;;;;;;;1999.90;999.90;;;;;;;14.89;100.00;94151.03;5084107;28;20244;-61
2023/04/01 07:53:25;;;;;;;1999.90;999.90;;;;;;;15.50;100.00;94161.59;5083927;28;20207;-60
2023/04/01 07:55:57;;;;;;;1999.90;999.90;;;;;;;15.52;100.00;94153.63;5084736;28;20241;-61
2023/04/01 07:58:37;;;;;;;1999.90;999.90;;;;;;;15.81;100.00;94175.81;5084175;28;20234;-61
2023/04/01 08:01:32;;;;;;;1999.90;999.90;;;;;;;15.57;100.00;94158.50;5084435;28;20188;-61
2023/04/01 08:04:19;;;;;;;1999.90;999.90;;;;;;;14.68;100.00;94168.47;5083728;28;20252;-61
2023/04/01 08:06:52;;;;;;;1999.90;999.90;;;;;;;14.56;100.00;94165.88;5084457;28;20169;-61
2023/04/01 08:10:00;;;;;;;1999.90;999.90;;;;;;;13.91;100.00;94149.78;5084350;28;20177;-61
2023/04/01 08:12:50;;;;;;;1999.90;999.90;;;;;;;13.72;100.00;94164.66;5084120;28;20198;-61
2023/04/01 08:15:48;;;;;;;1999.90;999.90;;;;;;;13.52;100.00;94158.81;5084397;28;20198;-61
2023/04/01 08:18:46;;;;;;;1999.90;999.90;;;;;;;13.43;100.00;94167.00;5083370;28;20208;-60
2023/04/01 08:21:21;;;;;;;1999.90;999.90;;;;;;;13.59;100.00;94166.78;5083919;28;20237;-60
2023/04/01 08:23:49;;;;;;;1999.90;999.90;;;;;;;13.71;100.00;94168.63;5084206;28;20169;-60
2023/04/01 08:26:35;;;;;;;1999.90;999.90;;;;;;;13.87;100.00;94154.63;5083569;28;20223;-60
2023/04/01 08:29:07;;;;;;;1999.90;999.90;;;;;;;13.98;100.00;94170.69;5083853;28;20219;-65
2023/04/01 08:32:05;;;;;;;1999.90;999.90;;;;;;;14.28;100.00;94167.84;5087656;28;20211;-60
2023/04/01 08:34:36;;;;;;;1999.90;999.90;;;;;;;14.78;100.00;94156.25;5088218;28;20169;-60
2023/04/01 08:37:17;;;;;;;1999.90;999.90;;;;;;;16.89;100.00;94152.28;5088118;28;20169;-61
2023/04/01 08:39:48;;;;;;;1999.90;999.90;;;;;;;17.86;96.92;94144.63;5088079;28;20204;-60
2023/04/01 08:42:16;;;;;;;1999.90;999.90;;;;;;;16.54;100.00;94145.09;5087996;28;20169;-61
2023/04/01 08:45:07;;;;;;;1999.90;999.90;;;;;;;15.86;100.00;94144.91;5087554;28;20200;-61
2023/04/01 08:48:08;;;;;;;1999.90;999.90;;;;;;;15.62;100.00;94141.34;5088003;28;20173;-60
2023/04/01 08:50:59;;;;;;;1999.90;999.90;;;;;;;15.85;100.00;94137.88;5088121;28;20169;-61
2023/04/01 08:53:50;;;;;;;1999.90;999.90;;;;;;;14.90;100.00;94149.81;5087583;28;20169;-60
2023/04/01 08:56:37;;;;;;;1999.90;999.90;;;;;;;14.73;100.00;94151.38;5087111;28;20191;-60
2023/04/01 08:59:06;;;;;;;1999.90;999.90;;;;;;;15.02;100.00;94153.63;5087345;28;20205;-61
2023/04/01 09:01:53;;;;;;;1999.90;999.90;;;;;;;15.70;100.00;94147.28;5087887;28;20244;-60
2023/04/01 09:04:39;;;;;;;1999.90;999.90;;;;;;;16.86;100.00;94149.72;5087765;28;20236;-61
2023/04/01 09:07:19;;;;;;;1999.90;999.90;;;;;;;17.30;91.69;94153.25;5087006;28;20177;-63
2023/04/01 09:09:58;;;;;;;1999.90;999.90;;;;;;;17.44;91.60;94147.00;5086724;28;20181;-63
2023/04/01 09:13:07;;;;;;;1999.90;999.90;;;;;;;16.43;97.41;94143.63;5087032;28;20173;-64
2023/04/01 09:15:43;;;;;;;1999.90;999.90;;;;;;;15.87;99.35;94157.44;5080126;28;20188;-62
2023/04/01 09:18:08;;;;;;;1999.90;999.90;;;;;;;14.95;100.00;94146.44;5087075;28;20201;-62
2023/04/01 09:20:59;;;;;;;1999.90;999.90;;;;;;;15.78;100.00;94137.47;5086801;28;20205;-63
2023/04/01 09:23:45;;;;;;;1999.90;999.90;;;;;;;16.84;93.44;94121.84;5087335;28;20177;-64
2023/04/01 09:26:14;;;;;;;1999.90;999.90;;;;;;;17.29;90.05;94129.66;5086624;28;20177;-64
2023/04/01 09:29:16;;;;;;;1999.90;999.90;;;;;;;16.17;92.58;94134.31;5086664;28;20200;-64
2023/04/01 09:31:57;;;;;;;1999.90;999.90;;;;;;;16.10;97.07;94120.16;5086653;28;20177;-62
2023/04/01 09:34:25;;;;;;;1999.90;999.90;;;;;;;15.72;100.00;94144.81;5087068;28;20169;-64
2023/04/01 09:37:06;;;;;;;1999.90;999.90;;;;;;;15.67;100.00;94129.69;5086470;28;20169;-63
2023/04/01 09:39:37;;;;;;;1999.90;999.90;;;;;;;15.45;100.00;94125.69;5086577;28;20212;-62
2023/04/01 09:42:14;;;;;;;1999.90;999.90;;;;;;;15.31;100.00;94124.34;5085747;28;20162;-63
2023/04/01 09:45:05;;;;;;;1999.90;999.90;;;;;;;15.22;100.00;94118.88;5086764;28;20154;-62
2023/04/01 09:48:09;;;;;;;1999.90;999.90;;;;;;;15.22;100.00;94118.88;5086661;28;20153;-62
2023/04/01 09:51:01;;;;;;;1999.90;999.90;;;;;;;15.49;100.00;94113.31;5063212;28;20177;-62
2023/04/01 09:54:05;;;;;;;1999.90;999.90;;;;;;;15.68;100.00;94098.22;5086693;28;20164;-62
2023/04/01 09:57:08;;;;;;;1999.90;999.90;;;;;;;16.61;95.51;94098.59;5086475;28;20161;-63
2023/04/01 10:00:05;;;;;;;1999.90;999.90;;;;;;;17.66;86.29;94105.94;5086267;28;20192;-63
2023/04/01 10:02:50;;;;;;;1999.90;999.90;;;;;;;18.41;79.83;94098.41;5086772;28;20183;-63
2023/04/01 10:06:09;;;;;;;1999.90;999.90;;;;;;;18.08;81.28;94109.78;5086281;28;20168;-63
2023/04/01 10:09:02;;;;;;;1999.90;999.90;;;;;;;17.37;81.63;94103.19;5028435;28;20209;-60
2023/04/01 10:12:08;;;;;;;1999.90;999.90;;;;;;;16.75;87.17;94097.13;5028449;28;20253;-62
2023/04/01 10:15:12;;;;;;;1999.90;999.90;;;;;;;16.16;89.59;94102.50;5046532;28;20197;-62
2023/04/01 10:18:04;;;;;;;1999.90;999.90;;;;;;;15.98;93.61;94097.09;5028381;28;20233;-61
2023/04/01 10:20:59;;;;;;;1999.90;999.90;;;;;;;15.53;96.21;94111.13;5029039;28;20189;-61
2023/04/01 10:23:49;;;;;;;1999.90;999.90;;;;;;;15.24;100.00;94099.94;5076636;28;20173;-62
2023/04/01 10:26:47;;;;;;;1999.90;999.90;;;;;;;15.13;100.00;94110.66;5085855;28;20173;-62
2023/04/01 10:29:36;;;;;;;1999.90;999.90;;;;;;;14.95;100.00;94101.69;5085818;28;20213;-62
2023/04/01 10:32:22;;;;;;;1999.90;999.90;;;;;;;14.70;100.00;94091.81;5085974;28;20161;-62
2023/04/01 10:35:37;;;;;;;1999.90;999.90;;;;;;;15.28;100.00;94100.53;5086098;28;20157;-62
2023/04/01 10:38:50;;;;;;;1999.90;999.90;;;;;;;15.27;100.00;94092.72;5085636;28;20197;-62
2023/04/01 10:41:23;;;;;;;1999.90;999.90;;;;;;;14.94;100.00;94100.91;5085236;28;20161;-62
2023/04/01 10:44:07;;;;;;;1999.90;999.90;;;;;;;14.78;100.00;94101.28;5085733;28;20169;-62
2023/04/01 10:46:35;;;;;;;1999.90;999.90;;;;;;;14.80;100.00;94098.84;5085928;28;20172;-62
2023/04/01 10:49:28;;;;;;;1999.90;999.90;;;;;;;14.77;100.00;94105.25;5085178;28;20188;-62
2023/04/01 10:52:24;;;;;;;1999.90;999.90;;;;;;;14.51;100.00;94093.09;5084849;28;20166;-63
2023/04/01 10:54:52;;;;;;;1999.90;999.90;;;;;;;14.22;100.00;94097.53;5084945;28;20506;-62
2023/04/01 10:57:47;;;;;;;1999.90;999.90;;;;;;;14.06;100.00;94106.03;5085141;28;20177;-62
2023/04/01 11:00:46;;;;;;;1999.90;999.90;;;;;;;13.92;100.00;94112.13;5032726;28;20207;-62
2023/04/01 11:03:24;;;;;;;1999.90;999.90;;;;;;;13.90;100.00;94104.34;5085179;28;20200;-62
2023/04/01 11:06:11;;;;;;;1999.90;999.90;;;;;;;13.91;100.00;94105.84;5085439;28;20175;-62
2023/04/01 11:09:02;;;;;;;1999.90;999.90;;;;;;;13.76;100.00;94115.91;5085298;28;20177;-62
2023/04/01 11:12:11;;;;;;;1999.90;999.90;;;;;;;14.00;100.00;94113.34;5084622;28;20188;-62
2023/04/01 11:15:05;;;;;;;1999.90;999.90;;;;;;;13.68;100.00;94120.16;5085228;28;20244;-62
2023/04/01 11:17:45;;;;;;;1999.90;999.90;;;;;;;13.46;100.00;94108.50;5085066;28;20161;-61
2023/04/01 11:20:36;;;;;;;1999.90;999.90;;;;;;;13.35;100.00;94119.13;5085159;28;20188;-62
2023/04/01 11:23:29;;;;;;;1999.90;999.90;;;;;;;13.29;100.00;94137.38;5084891;28;20177;-62
2023/04/01 11:26:27;;;;;;;1999.90;999.90;;;;;;;13.27;100.00;94126.88;5085009;28;20173;-63
2023/04/01 11:29:09;;;;;;;1999.90;999.90;;;;;;;13.18;100.00;94137.81;5080881;28;20256;-64